Time;durP1;ratioP1;P1;durP2;ratioP2;P2;SDS_P1;SDS_P2;PMS_P1;PMS_P2;Temp;Humidity;BMP_temperature;BMP_pressure;BME280_temperature;BME280_humidity;BME280_pressure;Samples;Min_cycle;Max_cycle;Signal;HPM_P1;HPM_P2
2022/11/11 00:01:42;;;;;;;82.15;32.03;;;;;;;4.48;74.19;94519.41;5073063;28;20028;-34
2022/11/11 00:04:08;;;;;;;59.70;27.98;;;;;;;4.22;75.03;94524.84;5090916;28;20020;-34
2022/11/11 00:06:33;;;;;;;58.95;29.75;;;;;;;4.28;74.95;94535.84;5090106;28;20024;-34
2022/11/11 00:08:58;;;;;;;54.20;27.73;;;;;;;4.24;75.12;94532.56;5090915;28;20039;-34
2022/11/11 00:11:24;;;;;;;49.47;26.65;;;;;;;4.26;74.79;94527.38;5091157;28;20035;-34
2022/11/11 00:13:49;;;;;;;67.68;30.38;;;;;;;4.15;75.03;94525.28;5091226;28;20590;-34
2022/11/11 00:16:17;;;;;;;57.05;27.45;;;;;;;4.16;75.26;94528.78;5090710;28;20023;-34
2022/11/11 00:26:47;;;;;;;130.02;63.72;;;;;;;4.46;75.06;94510.94;5090697;28;20085;-34
2022/11/11 00:29:13;;;;;;;51.63;30.85;;;;;;;4.59;74.86;94520.22;5090633;28;20020;-34
2022/11/11 00:32:21;;;;;;;49.65;27.35;;;;;;;4.65;75.01;94512.09;5090929;28;20059;-34
2022/11/11 00:34:24;;;;;;;47.92;27.15;;;;;;;4.70;74.31;94502.44;5090349;28;20032;-34
2022/11/11 00:36:50;;;;;;;55.75;29.13;;;;;;;4.66;74.30;94502.63;5090560;28;20085;-34
2022/11/11 00:39:15;;;;;;;59.92;32.85;;;;;;;4.77;74.06;94519.13;5090776;28;20103;-34
2022/11/11 00:41:41;;;;;;;65.35;34.72;;;;;;;4.66;74.17;94515.56;5090471;28;20055;-34
2022/11/11 00:44:12;;;;;;;54.92;31.63;;;;;;;4.60;74.00;94510.03;5090425;28;20055;-34
2022/11/11 00:52:05;;;;;;;29.52;17.73;;;;;;;4.41;74.80;94509.63;5090406;28;20094;-34
2022/11/11 00:54:31;;;;;;;32.45;18.73;;;;;;;4.31;75.70;94508.28;5090192;28;20050;-34
2022/11/11 00:56:56;;;;;;;27.80;17.52;;;;;;;4.31;76.16;94510.28;5090269;28;20024;-34
2022/11/11 00:59:22;;;;;;;23.65;16.17;;;;;;;4.43;76.28;94507.16;5090564;28;20024;-34
2022/11/11 01:01:47;;;;;;;24.42;14.82;;;;;;;4.46;76.17;94510.94;5090486;28;20032;-34
2022/11/11 01:04:12;;;;;;;25.40;15.55;;;;;;;4.61;76.54;94495.16;5090113;28;20499;-34
2022/11/11 01:06:38;;;;;;;26.13;17.25;;;;;;;4.68;76.63;94515.84;5090531;28;20484;-34
2022/11/11 01:09:05;;;;;;;28.58;17.65;;;;;;;4.77;76.53;94502.72;5090148;28;20028;-34
2022/11/11 01:11:32;;;;;;;30.45;19.67;;;;;;;4.79;76.39;94497.50;5090414;28;20028;-34
2022/11/11 01:13:57;;;;;;;36.70;19.85;;;;;;;4.83;76.04;94498.03;5090023;28;20503;-34
2022/11/11 01:16:25;;;;;;;33.17;20.38;;;;;;;4.84;75.81;94501.53;5090245;28;20028;-34
2022/11/11 01:18:52;;;;;;;32.47;19.42;;;;;;;4.63;76.68;94497.38;5094256;28;20775;-34
2022/11/11 01:21:19;;;;;;;31.30;18.63;;;;;;;4.79;76.89;94507.69;5094168;28;20032;-34
2022/11/11 01:23:46;;;;;;;28.52;18.63;;;;;;;4.82;76.64;94502.03;5093980;28;20503;-34
2022/11/11 01:26:31;;;;;;;28.45;17.48;;;;;;;4.80;76.79;94515.44;5093683;28;20032;-34
2022/11/11 01:28:57;;;;;;;25.05;17.08;;;;;;;4.83;76.83;94508.25;5093130;28;20047;-34
2022/11/11 01:31:24;;;;;;;30.63;17.33;;;;;;;4.81;77.42;94510.72;5094120;28;20024;-34
2022/11/11 01:33:50;;;;;;;28.05;16.75;;;;;;;4.88;76.41;94511.03;5075788;28;20453;-34
2022/11/11 01:36:18;;;;;;;26.60;17.33;;;;;;;4.91;76.82;94509.31;5093811;28;20020;-34
2022/11/11 01:38:48;;;;;;;26.35;16.77;;;;;;;4.85;77.17;94508.53;5093807;28;20032;-34
2022/11/11 01:41:33;;;;;;;31.55;18.42;;;;;;;5.05;76.91;94508.41;5094106;28;20036;-34
2022/11/11 01:44:11;;;;;;;31.42;18.33;;;;;;;4.95;77.15;94501.63;5093916;28;20052;-34
2022/11/11 01:46:43;;;;;;;31.15;18.17;;;;;;;5.06;76.99;94507.16;5093564;28;20046;-34
2022/11/11 01:49:30;;;;;;;30.67;17.85;;;;;;;5.03;76.92;94506.16;5075756;28;20384;-34
2022/11/11 01:52:16;;;;;;;25.33;16.98;;;;;;;5.06;76.94;94499.72;5093631;28;20048;-34
2022/11/11 01:54:52;;;;;;;24.58;17.90;;;;;;;5.00;76.79;94498.91;5075924;28;20024;-34
2022/11/11 01:57:36;;;;;;;24.20;15.13;;;;;;;5.02;76.52;94501.94;5093514;28;20032;-34
2022/11/11 02:00:14;;;;;;;22.92;15.88;;;;;;;5.06;76.23;94496.22;5093511;28;20020;-34
2022/11/11 02:02:43;;;;;;;27.25;16.45;;;;;;;4.85;76.42;94506.50;5093837;28;20032;-34
2022/11/11 02:07:59;;;;;;;19.13;13.77;;;;;;;4.87;75.98;94504.06;5093716;28;20038;-34
2022/11/11 02:10:26;;;;;;;28.38;15.13;;;;;;;4.88;75.99;94508.28;5093504;28;20058;-34
2022/11/11 02:15:36;;;;;;;25.38;14.40;;;;;;;4.96;76.15;94509.34;5093232;28;20111;-34
2022/11/11 02:18:02;;;;;;;19.65;14.27;;;;;;;4.95;76.69;94493.41;5075087;28;20039;-34
2022/11/11 02:20:30;;;;;;;25.65;15.18;;;;;;;5.11;76.38;94511.94;5093068;28;20038;-34
2022/11/11 02:22:59;;;;;;;29.63;18.17;;;;;;;5.09;76.92;94509.69;5075204;28;20042;-34
2022/11/11 02:25:27;;;;;;;46.50;19.60;;;;;;;5.14;76.68;94514.44;5074494;28;20028;-34
2022/11/11 02:27:57;;;;;;;28.65;19.17;;;;;;;5.15;76.83;94515.19;5075037;28;20028;-34
2022/11/11 02:30:22;;;;;;;38.00;20.80;;;;;;;5.24;76.23;94520.50;5074048;28;20046;-34
2022/11/11 02:32:50;;;;;;;39.55;21.25;;;;;;;5.19;76.20;94519.22;5092812;28;20028;-34
2022/11/11 02:35:17;;;;;;;42.35;21.50;;;;;;;5.08;76.45;94518.38;5092686;28;20409;-34
2022/11/11 02:37:50;;;;;;;50.75;24.55;;;;;;;4.98;77.43;94525.28;5093108;28;20648;-34
2022/11/11 02:40:19;;;;;;;76.07;35.00;;;;;;;4.94;77.74;94524.72;5092794;28;20028;-34
2022/11/11 02:42:44;;;;;;;67.03;30.13;;;;;;;5.08;77.92;94526.59;5074912;28;20073;-34
2022/11/11 02:45:10;;;;;;;77.30;32.92;;;;;;;4.95;79.04;94520.78;5092352;28;20593;-34
2022/11/11 02:47:35;;;;;;;48.83;24.95;;;;;;;4.93;79.53;94528.72;5092404;28;20119;-34
2022/11/11 02:50:01;;;;;;;42.00;20.58;;;;;;;4.81;80.19;94533.34;5092504;28;20032;-34
2022/11/11 02:52:26;;;;;;;43.33;19.73;;;;;;;4.86;80.78;94535.38;5092360;28;20032;-34
2022/11/11 02:54:52;;;;;;;33.00;19.27;;;;;;;4.88;80.89;94524.69;5092409;28;20020;-34
2022/11/11 02:57:17;;;;;;;32.53;18.90;;;;;;;5.06;80.18;94521.63;5092325;28;20031;-34
2022/11/11 02:59:43;;;;;;;29.05;18.00;;;;;;;5.16;79.46;94522.16;5092300;28;20028;-34
2022/11/11 03:02:08;;;;;;;28.95;16.88;;;;;;;5.31;78.67;94534.47;5092571;28;20039;-34
2022/11/11 03:04:36;;;;;;;30.48;18.63;;;;;;;5.34;78.68;94527.28;5092397;28;20486;-34
2022/11/11 03:07:01;;;;;;;30.65;19.15;;;;;;;5.31;78.48;94530.97;5092243;28;20739;-34
2022/11/11 03:09:27;;;;;;;28.45;17.65;;;;;;;5.36;78.86;94533.00;5092363;28;20030;-34
2022/11/11 03:11:53;;;;;;;24.27;17.35;;;;;;;5.46;78.58;94536.31;5092128;28;20093;-34
2022/11/11 03:14:18;;;;;;;30.40;18.50;;;;;;;5.53;78.56;94531.09;5091973;28;20024;-34
2022/11/11 03:19:27;;;;;;;33.75;20.63;;;;;;;5.73;78.18;94527.47;5092302;28;20137;-34
2022/11/11 03:21:54;;;;;;;34.05;20.52;;;;;;;5.82;78.12;94527.28;5092191;28;20268;-34
2022/11/11 03:24:20;;;;;;;38.78;21.50;;;;;;;5.89;77.24;94530.31;5091948;28;20109;-34
2022/11/11 03:26:46;;;;;;;44.25;24.33;;;;;;;5.96;77.06;94537.31;5091752;28;20119;-34
2022/11/11 03:29:12;;;;;;;36.83;22.98;;;;;;;5.99;77.31;94528.88;5091610;28;20491;-34
2022/11/11 03:31:37;;;;;;;41.83;23.55;;;;;;;6.01;77.79;94537.34;5091762;28;20027;-34
2022/11/11 03:34:18;;;;;;;40.05;21.92;;;;;;;6.13;77.88;94536.13;5091879;28;20027;-34
2022/11/11 03:39:28;;;;;;;41.42;22.02;;;;;;;6.24;78.23;94531.94;5091584;28;20103;-34
2022/11/11 03:41:55;;;;;;;47.70;25.02;;;;;;;6.03;78.69;94531.38;5091450;28;20487;-34
2022/11/11 03:44:21;;;;;;;49.95;25.85;;;;;;;6.15;78.87;94527.41;5091177;28;20048;-34
2022/11/11 03:46:46;;;;;;;41.83;25.05;;;;;;;6.20;78.44;94521.19;5091418;28;20039;-34
2022/11/11 03:49:11;;;;;;;38.45;22.90;;;;;;;6.22;77.77;94521.47;5091391;28;20039;-34
2022/11/11 03:51:37;;;;;;;34.63;23.15;;;;;;;6.13;77.91;94525.16;5091233;28;20016;-34
2022/11/11 03:54:02;;;;;;;37.47;22.98;;;;;;;5.96;78.17;94521.63;5091336;28;20027;-34
2022/11/11 03:56:28;;;;;;;47.70;24.70;;;;;;;5.82;78.89;94522.56;5091125;28;20038;-34
2022/11/11 03:58:53;;;;;;;40.92;22.35;;;;;;;5.85;78.83;94524.31;5091225;28;20028;-34
2022/11/11 04:12:14;;;;;;;42.13;24.45;;;;;;;5.86;78.53;94533.28;5091157;28;20565;-34
2022/11/11 04:17:24;;;;;;;46.00;26.38;;;;;;;5.86;78.95;94538.78;5090940;28;20126;-34
2022/11/11 04:22:39;;;;;;;53.63;26.95;;;;;;;5.88;80.21;94541.78;5091104;28;20034;-34
2022/11/11 04:29:27;;;;;;;55.08;28.33;;;;;;;6.05;80.26;94531.63;5090788;28;20443;-34
2022/11/11 04:30:34;;;;;;;77.75;33.75;;;;;;;5.96;81.58;94534.56;5090538;28;20035;-34
2022/11/11 04:32:59;;;;;;;56.78;28.65;;;;;;;6.01;81.29;94537.34;5090535;28;20035;-34
2022/11/11 04:35:25;;;;;;;51.70;25.75;;;;;;;5.91;79.92;94549.03;5090536;28;20016;-34
2022/11/11 04:37:51;;;;;;;53.45;28.63;;;;;;;5.71;80.75;94549.91;5090602;28;20024;-34
2022/11/11 04:43:00;;;;;;;121.13;47.22;;;;;;;5.87;81.47;94554.72;5090600;28;20102;-34
2022/11/11 04:45:32;;;;;;;296.38;104.30;;;;;;;5.87;81.77;94549.25;5090199;28;20048;-34
2022/11/11 04:48:06;;;;;;;133.73;59.72;;;;;;;6.07;81.51;94551.81;5090637;28;20032;-34
2022/11/11 04:50:34;;;;;;;95.05;44.47;;;;;;;6.07;81.40;94535.38;5090302;28;20515;-34
2022/11/11 04:53:00;;;;;;;89.55;40.83;;;;;;;6.18;81.52;94534.66;5090131;28;20489;-34
2022/11/11 04:58:10;;;;;;;42.58;26.48;;;;;;;6.30;80.00;94540.94;5090377;28;20036;-34
2022/11/11 05:00:36;;;;;;;41.13;25.23;;;;;;;6.43;78.83;94552.91;5090160;28;20099;-34
2022/11/11 05:11:14;;;;;;;58.65;30.92;;;;;;;6.50;80.68;94568.91;5090556;28;20039;-34
2022/11/11 05:22:06;;;;;;;55.17;31.42;;;;;;;6.64;81.79;94564.44;5090097;28;20055;-34
2022/11/11 05:27:16;;;;;;;61.45;32.92;;;;;;;6.79;82.04;94559.50;5070149;28;20098;-34
2022/11/11 05:29:41;;;;;;;66.25;33.85;;;;;;;6.72;81.88;94565.47;5081146;28;20031;-34
2022/11/11 05:32:07;;;;;;;63.28;36.75;;;;;;;6.75;81.90;94569.97;5089990;28;20032;-34
2022/11/11 05:34:33;;;;;;;61.92;35.78;;;;;;;6.84;81.70;94564.25;5090045;28;20059;-34
2022/11/11 05:36:58;;;;;;;57.75;33.55;;;;;;;6.75;81.66;94564.47;5089951;28;20423;-34
2022/11/11 05:39:24;;;;;;;54.10;31.08;;;;;;;6.70;82.38;94579.69;5089881;28;20028;-34
2022/11/11 05:41:49;;;;;;;55.35;32.97;;;;;;;6.69;82.88;94577.44;5089769;28;20061;-34
2022/11/11 05:44:15;;;;;;;59.80;32.00;;;;;;;6.80;83.08;94577.44;5089718;28;20051;-34
2022/11/11 05:46:40;;;;;;;55.72;29.52;;;;;;;6.87;83.14;94574.97;5089699;28;20495;-34
2022/11/11 05:49:15;;;;;;;52.42;30.38;;;;;;;6.97;83.31;94583.72;5089867;28;20050;-34
2022/11/11 05:51:44;;;;;;;50.72;30.15;;;;;;;6.95;83.30;94572.50;5090120;28;20032;-34
2022/11/11 05:54:10;;;;;;;57.75;31.85;;;;;;;7.11;83.19;94592.94;5089744;28;20492;-34
2022/11/11 05:56:36;;;;;;;54.38;32.40;;;;;;;7.22;82.85;94590.22;5089717;28;20024;-34
2022/11/11 05:59:01;;;;;;;56.72;32.65;;;;;;;7.29;82.08;94598.72;5089663;28;20032;-34
2022/11/11 06:01:26;;;;;;;54.15;32.50;;;;;;;7.36;81.38;94595.44;5089643;28;20028;-34
2022/11/11 06:03:52;;;;;;;53.63;31.85;;;;;;;7.46;81.05;94601.44;5090298;28;20089;-34
2022/11/11 06:06:17;;;;;;;59.20;34.67;;;;;;;7.51;80.70;94598.69;5093177;28;20024;-34
2022/11/11 06:08:43;;;;;;;73.90;40.83;;;;;;;7.58;80.69;94605.69;5093431;28;20093;-34
2022/11/11 06:11:09;;;;;;;63.28;38.67;;;;;;;7.60;80.60;94609.44;5075067;28;20024;-34
2022/11/11 06:13:34;;;;;;;61.63;37.88;;;;;;;7.50;80.05;94583.47;5093610;28;20051;-34
2022/11/11 06:16:00;;;;;;;77.18;44.40;;;;;;;7.54;80.77;94614.19;5093047;28;20020;-34
2022/11/11 06:18:25;;;;;;;74.10;45.80;;;;;;;7.60;81.06;94614.19;5093091;28;20081;-34
2022/11/11 06:20:54;;;;;;;70.55;47.58;;;;;;;7.54;81.71;94618.94;5093056;28;20543;-34
2022/11/11 06:23:20;;;;;;;82.53;48.95;;;;;;;7.58;81.79;94620.16;5093061;28;20480;-34
2022/11/11 06:28:29;;;;;;;91.32;48.63;;;;;;;7.63;81.82;94619.44;5092847;28;20602;-34
2022/11/11 06:30:55;;;;;;;76.15;43.13;;;;;;;7.65;81.94;94622.41;5093029;28;20057;-34
2022/11/11 06:33:20;;;;;;;77.55;43.13;;;;;;;7.73;81.59;94628.19;5093125;28;20036;-35
2022/11/11 06:35:46;;;;;;;71.70;41.58;;;;;;;7.75;81.06;94625.66;5093045;28;20441;-34
2022/11/11 06:38:12;;;;;;;73.72;44.28;;;;;;;7.90;81.09;94628.91;5092990;28;20488;-34
2022/11/11 06:40:37;;;;;;;126.80;54.38;;;;;;;7.96;80.38;94635.13;5092618;28;20028;-34
2022/11/11 06:43:03;;;;;;;106.70;55.17;;;;;;;7.99;80.25;94636.84;5092684;28;20028;-34
2022/11/11 06:45:29;;;;;;;90.47;50.25;;;;;;;8.00;80.09;94634.88;5092322;28;20043;-34
2022/11/11 06:47:55;;;;;;;92.13;50.50;;;;;;;7.97;80.15;94630.38;5092529;28;20028;-34
2022/11/11 06:50:21;;;;;;;96.38;49.83;;;;;;;7.99;80.57;94633.38;5092516;28;20085;-34
2022/11/11 06:52:46;;;;;;;96.70;50.42;;;;;;;7.99;80.16;94628.59;5092501;28;20024;-34
2022/11/11 06:55:13;;;;;;;97.57;51.42;;;;;;;8.07;80.34;94628.84;5092687;28;20028;-34
2022/11/11 06:57:38;;;;;;;92.38;49.13;;;;;;;8.30;79.31;94642.06;5092291;28;20077;-34
2022/11/11 07:00:05;;;;;;;94.00;48.30;;;;;;;8.30;79.20;94636.56;5092221;28;20012;-34
2022/11/11 07:02:30;;;;;;;84.20;45.00;;;;;;;8.22;79.18;94627.31;5092185;28;20031;-34
2022/11/11 07:04:56;;;;;;;81.15;45.97;;;;;;;8.42;78.79;94645.53;5092441;28;20060;-34
2022/11/11 07:07:21;;;;;;;96.35;49.38;;;;;;;8.46;78.70;94648.78;5074311;28;20400;-34
2022/11/11 07:09:47;;;;;;;90.45;44.55;;;;;;;8.45;78.69;94639.00;5092446;28;20621;-34
2022/11/11 07:12:13;;;;;;;79.00;43.17;;;;;;;8.38;78.91;94634.06;5092114;28;20546;-34
2022/11/11 07:14:38;;;;;;;63.08;38.25;;;;;;;8.34;79.29;94639.81;5091950;28;20016;-34
2022/11/11 07:17:04;;;;;;;73.60;38.50;;;;;;;8.39;79.38;94641.03;5092208;28;20115;-34
2022/11/11 07:19:29;;;;;;;68.45;37.78;;;;;;;8.36;79.88;94648.28;5092188;28;20028;-34
2022/11/11 07:21:55;;;;;;;70.15;38.38;;;;;;;8.36;80.31;94637.28;5091986;28;20031;-34
2022/11/11 07:24:20;;;;;;;77.90;45.53;;;;;;;8.28;80.82;94639.06;5092081;28;20074;-34
2022/11/11 07:26:46;;;;;;;84.85;42.33;;;;;;;8.22;81.66;94643.81;5091653;28;20113;-34
2022/11/11 07:29:13;;;;;;;75.15;41.28;;;;;;;8.35;81.33;94635.06;5092040;28;20423;-34
2022/11/11 07:31:38;;;;;;;82.72;43.05;;;;;;;8.22;81.44;94596.31;5091781;28;20113;-34
2022/11/11 07:34:04;;;;;;;68.97;39.47;;;;;;;8.49;81.78;94631.22;5091989;28;20047;-34
2022/11/11 07:36:29;;;;;;;76.35;40.33;;;;;;;8.55;81.69;94631.97;5091865;28;20097;-34
2022/11/11 07:38:55;;;;;;;76.45;41.78;;;;;;;8.59;82.06;94626.19;5091662;28;20083;-34
2022/11/11 07:41:20;;;;;;;64.65;39.20;;;;;;;8.68;82.08;94651.44;5091568;28;20024;-34
2022/11/11 07:43:46;;;;;;;65.82;37.70;;;;;;;8.72;81.84;94656.69;5091525;28;20075;-34
2022/11/11 07:46:11;;;;;;;68.45;37.47;;;;;;;8.71;81.84;94663.44;5091346;28;20089;-34
2022/11/11 07:48:37;;;;;;;60.78;36.72;;;;;;;8.70;82.07;94667.44;5091427;28;20070;-34
2022/11/11 07:51:02;;;;;;;65.85;39.00;;;;;;;8.79;81.54;94667.88;5091440;28;20032;-34
2022/11/11 07:53:27;;;;;;;80.30;45.08;;;;;;;8.74;81.13;94676.19;5091571;28;20419;-34
2022/11/11 07:55:53;;;;;;;86.93;44.38;;;;;;;8.75;81.34;94672.91;5091542;28;20016;-34
2022/11/11 07:58:19;;;;;;;79.45;44.17;;;;;;;8.67;81.29;94674.72;5091402;28;20028;-34
2022/11/11 08:00:44;;;;;;;78.90;42.53;;;;;;;8.64;82.15;94675.00;5091450;28;20047;-34
2022/11/11 08:03:10;;;;;;;67.00;38.90;;;;;;;8.47;82.84;94669.53;5091119;28;20032;-34
2022/11/11 08:05:35;;;;;;;71.68;39.47;;;;;;;8.45;83.63;94674.78;5091030;28;20031;-34
2022/11/11 08:08:05;;;;;;;70.72;39.55;;;;;;;8.59;83.75;94667.50;5091014;28;20181;-34
2022/11/11 08:10:31;;;;;;;60.35;36.28;;;;;;;8.65;84.39;94668.22;5090903;28;20559;-34
2022/11/11 08:15:41;;;;;;;106.43;55.53;;;;;;;8.74;84.42;94667.94;5090913;28;20564;-34
2022/11/11 08:18:07;;;;;;;80.70;44.85;;;;;;;8.71;84.20;94674.44;5090810;28;20028;-34
2022/11/11 08:20:32;;;;;;;66.60;37.78;;;;;;;8.71;84.52;94668.94;5090749;28;20063;-34
2022/11/11 08:22:58;;;;;;;61.25;36.28;;;;;;;8.74;84.34;94671.44;5090827;28;20027;-34
2022/11/11 08:25:24;;;;;;;56.40;31.75;;;;;;;8.82;84.20;94672.41;5090637;28;20466;-34
2022/11/11 08:28:00;;;;;;;60.22;30.25;;;;;;;8.89;83.45;94676.63;5089909;28;20028;-34
2022/11/11 08:30:26;;;;;;;54.22;33.25;;;;;;;8.93;83.18;94672.34;5090552;28;20028;-34
2022/11/11 08:32:57;;;;;;;68.03;35.05;;;;;;;9.02;82.61;94674.81;5090592;28;20035;-34
2022/11/11 08:35:23;;;;;;;70.38;36.45;;;;;;;9.03;82.50;94673.53;5090821;28;20031;-34
2022/11/11 08:37:48;;;;;;;63.17;37.58;;;;;;;9.10;82.22;94664.75;5090755;28;20020;-34
2022/11/11 08:40:15;;;;;;;64.28;37.45;;;;;;;9.11;82.89;94671.00;5072302;28;20507;-34
2022/11/11 08:42:41;;;;;;;78.97;43.60;;;;;;;9.20;83.21;94678.22;5072458;28;20027;-34
2022/11/11 08:45:08;;;;;;;59.97;36.30;;;;;;;9.26;83.57;94679.69;5090150;28;20048;-34
2022/11/11 08:47:36;;;;;;;27.40;18.83;;;;;;;9.37;84.06;94684.38;5090725;28;20048;-34
2022/11/11 08:50:02;;;;;;;22.70;13.90;;;;;;;9.33;83.95;94664.59;5090610;28;20408;-34
2022/11/11 08:52:27;;;;;;;14.40;9.80;;;;;;;9.47;84.16;94678.03;5090318;28;20020;-34
2022/11/11 08:54:53;;;;;;;14.85;9.98;;;;;;;9.62;83.93;94677.66;5090319;28;20031;-34
2022/11/11 08:57:18;;;;;;;15.82;9.65;;;;;;;9.69;83.87;94682.63;5090295;28;20028;-34
2022/11/11 08:59:44;;;;;;;15.98;10.23;;;;;;;9.88;84.03;94672.44;5090146;28;20111;-34
2022/11/11 09:02:14;;;;;;;17.48;12.43;;;;;;;10.14;82.79;94672.75;5090200;28;20024;-34
2022/11/11 09:04:40;;;;;;;17.83;11.60;;;;;;;10.35;80.96;94667.53;5090039;28;20096;-34
2022/11/11 09:07:07;;;;;;;18.33;12.20;;;;;;;10.64;80.92;94674.97;5090517;28;20027;-34
2022/11/11 09:09:34;;;;;;;14.30;10.50;;;;;;;11.07;78.03;94669.41;5090092;28;20024;-34
2022/11/11 09:12:00;;;;;;;14.35;10.27;;;;;;;11.21;76.90;94676.53;5090146;28;20411;-34
2022/11/11 09:14:25;;;;;;;15.00;11.23;;;;;;;11.38;75.91;94677.03;5090149;28;20023;-34
2022/11/11 09:16:51;;;;;;;14.55;10.07;;;;;;;11.30;75.56;94681.69;5089956;28;20077;-34
2022/11/11 09:19:16;;;;;;;14.88;10.40;;;;;;;11.12;75.83;94685.19;5090132;28;20031;-34
2022/11/11 09:21:42;;;;;;;18.63;11.55;;;;;;;10.89;76.44;94673.69;5089982;28;20047;-34
2022/11/11 09:24:07;;;;;;;19.35;12.55;;;;;;;10.91;77.30;94679.44;5090030;28;20107;-34
2022/11/11 09:26:33;;;;;;;17.60;11.10;;;;;;;11.02;76.30;94678.53;5089865;28;20093;-34
2022/11/11 09:28:58;;;;;;;16.23;10.40;;;;;;;11.10;76.12;94682.19;5090160;28;20107;-34
2022/11/11 09:31:24;;;;;;;16.88;10.77;;;;;;;11.23;75.05;94683.03;5090075;28;20020;-34
2022/11/11 09:33:50;;;;;;;19.15;12.63;;;;;;;11.28;74.79;94662.13;5089856;28;20031;-34
2022/11/11 09:36:16;;;;;;;17.67;11.20;;;;;;;11.40;73.12;94674.50;5090209;28;20085;-34
2022/11/11 09:38:42;;;;;;;16.42;10.50;;;;;;;11.40;73.11;94674.50;5092054;28;20040;-34
2022/11/11 09:41:35;;;;;;;19.45;12.75;;;;;;;11.53;72.93;94671.78;5094112;28;20035;-34
2022/11/11 09:44:02;;;;;;;19.92;13.45;;;;;;;11.57;72.60;94672.22;5093781;28;20051;-34
2022/11/11 09:46:45;;;;;;;17.00;10.88;;;;;;;11.62;71.96;94659.59;5093580;28;20032;-34
2022/11/11 09:49:32;;;;;;;22.15;14.68;;;;;;;11.59;71.98;94660.63;5075732;28;20672;-34
2022/11/11 09:52:10;;;;;;;15.18;10.70;;;;;;;11.40;72.79;94655.13;5093730;28;20040;-34
2022/11/11 09:54:40;;;;;;;16.98;10.43;;;;;;;11.43;73.03;94660.34;5093703;28;20054;-34
2022/11/11 09:57:14;;;;;;;13.18;8.40;;;;;;;11.49;73.42;94654.00;5093004;28;20036;-34
2022/11/11 09:59:49;;;;;;;21.83;12.80;;;;;;;11.63;72.28;94656.28;5075400;28;20039;-34
2022/11/11 10:02:36;;;;;;;20.83;11.70;;;;;;;11.79;71.19;94660.84;5075498;28;20024;-34
2022/11/11 10:05:13;;;;;;;17.33;10.35;;;;;;;11.94;71.24;94660.34;5093346;28;20031;-34
2022/11/11 10:07:40;;;;;;;13.18;8.73;;;;;;;12.02;69.77;94661.97;5093412;28;20024;-34
2022/11/11 10:10:19;;;;;;;14.98;9.77;;;;;;;12.09;70.51;94653.06;5093294;28;20051;-34
2022/11/11 10:13:03;;;;;;;12.98;8.20;;;;;;;12.08;69.40;94653.59;5093347;28;20046;-34
2022/11/11 10:15:44;;;;;;;13.57;7.47;;;;;;;12.00;69.73;94652.69;5074737;28;20108;-34
2022/11/11 10:18:47;;;;;;;11.77;8.77;;;;;;;11.98;69.69;94652.50;5093423;28;20028;-34
2022/11/11 10:21:23;;;;;;;9.45;6.97;;;;;;;11.80;69.99;94653.31;5093390;28;20028;-34
2022/11/11 10:23:51;;;;;;;11.60;7.50;;;;;;;11.74;70.42;94660.94;5093318;28;20061;-34
2022/11/11 10:26:29;;;;;;;14.20;7.90;;;;;;;11.55;70.55;94651.91;5092522;28;20103;-34
2022/11/11 10:28:56;;;;;;;11.93;7.45;;;;;;;11.51;70.68;94663.28;5074930;28;20027;-34
2022/11/11 10:31:22;;;;;;;11.18;7.25;;;;;;;11.52;70.76;94650.94;5092894;28;20066;-34
2022/11/11 10:34:10;;;;;;;14.80;7.85;;;;;;;11.40;70.85;94655.91;5074788;28;20020;-34
2022/11/11 10:36:43;;;;;;;13.23;7.80;;;;;;;11.49;70.82;94660.28;5074881;28;20051;-34
2022/11/11 10:39:12;;;;;;;13.25;8.05;;;;;;;11.35;70.12;94653.94;5075044;28;20055;-34
2022/11/11 10:41:47;;;;;;;15.52;8.98;;;;;;;11.24;70.85;94648.56;5092771;28;20085;-34
2022/11/11 10:44:27;;;;;;;16.45;9.40;;;;;;;11.17;70.99;94642.91;5092400;28;20051;-34
2022/11/11 10:47:17;;;;;;;13.60;8.45;;;;;;;11.22;70.90;94651.13;5092725;28;20377;-34
2022/11/11 10:49:59;;;;;;;13.98;8.80;;;;;;;11.22;70.53;94650.38;5091825;28;20035;-34
2022/11/11 10:52:32;;;;;;;15.27;8.52;;;;;;;11.23;70.22;94646.34;5092479;28;20016;-34
2022/11/11 10:55:03;;;;;;;15.95;9.98;;;;;;;11.25;69.91;94641.03;5092482;28;20016;-34
2022/11/11 10:57:51;;;;;;;11.18;7.93;;;;;;;11.19;70.25;94648.66;5092528;28;20020;-34
2022/11/11 11:00:17;;;;;;;14.73;10.00;;;;;;;11.29;69.98;94636.69;5092253;28;20457;-34
2022/11/11 11:03:01;;;;;;;12.45;8.60;;;;;;;11.34;70.59;94640.66;5092255;28;20024;-34
2022/11/11 11:05:43;;;;;;;14.95;9.13;;;;;;;11.23;69.48;94636.03;5092238;28;20024;-34
2022/11/11 11:08:13;;;;;;;15.85;8.40;;;;;;;11.29;70.10;94633.19;5092312;28;20115;-34
2022/11/11 11:10:51;;;;;;;21.73;11.48;;;;;;;11.43;69.51;94632.69;5074142;28;20020;-34
2022/11/11 11:13:23;;;;;;;16.90;9.85;;;;;;;11.44;69.28;94641.75;5092131;28;20056;-34
2022/11/11 11:15:55;;;;;;;15.20;11.50;;;;;;;11.33;69.35;94634.38;5074066;28;20106;-34
2022/11/11 11:18:21;;;;;;;15.60;9.43;;;;;;;11.16;69.91;94635.88;5091978;28;20020;-34
2022/11/11 11:21:01;;;;;;;16.48;9.70;;;;;;;11.09;70.82;94636.47;5091966;28;20046;-34
2022/11/11 11:23:44;;;;;;;17.33;10.23;;;;;;;11.26;70.31;94629.44;5090643;28;20400;-34
2022/11/11 11:26:12;;;;;;;22.70;11.90;;;;;;;11.32;69.90;94623.84;5091479;28;20477;-34
2022/11/11 11:28:54;;;;;;;15.55;10.55;;;;;;;11.28;70.15;94632.44;5091746;28;20059;-34
2022/11/11 11:31:34;;;;;;;19.88;12.23;;;;;;;11.32;69.98;94627.38;5073783;28;20028;-34
2022/11/11 11:34:00;;;;;;;15.85;9.82;;;;;;;11.20;70.10;94626.03;5092047;28;20043;-34
2022/11/11 11:36:26;;;;;;;15.75;9.73;;;;;;;11.12;70.61;94630.66;5091615;28;20480;-34
2022/11/11 11:38:51;;;;;;;30.40;14.98;;;;;;;11.09;70.30;94628.19;5091530;28;20104;-34
2022/11/11 11:41:40;;;;;;;25.55;15.18;;;;;;;11.04;70.46;94623.50;5091898;28;20058;-34
2022/11/11 11:44:28;;;;;;;25.05;14.85;;;;;;;10.98;71.03;94633.88;5091443;28;20040;-34
2022/11/11 11:47:09;;;;;;;19.23;11.40;;;;;;;10.89;71.22;94623.94;5091337;28;20034;-34
2022/11/11 11:50:22;;;;;;;17.67;10.80;;;;;;;10.86;71.65;94624.22;5091461;28;20028;-34
2022/11/11 11:53:06;;;;;;;16.45;10.70;;;;;;;10.74;71.80;94622.91;5082709;28;20036;-34
2022/11/11 11:55:39;;;;;;;16.58;10.10;;;;;;;10.71;72.67;94635.72;5091606;28;20388;-34
2022/11/11 11:58:10;;;;;;;13.38;9.27;;;;;;;10.61;73.83;94624.28;5073253;28;20043;-34
2022/11/11 12:00:49;;;;;;;15.60;10.93;;;;;;;10.55;74.22;94623.59;5091041;28;20503;-34
2022/11/11 12:03:32;;;;;;;17.35;10.90;;;;;;;10.48;74.73;94629.72;5090642;28;20027;-34
2022/11/11 12:06:16;;;;;;;16.33;9.93;;;;;;;10.45;75.56;94619.72;5091022;28;20028;-34
2022/11/11 12:09:02;;;;;;;57.33;34.10;;;;;;;10.49;75.93;94627.69;5072816;28;20077;-34
2022/11/11 12:12:02;;;;;;;121.15;56.88;;;;;;;10.44;76.42;94632.03;5091101;28;20055;-34
2022/11/11 12:14:36;;;;;;;355.75;147.10;;;;;;;10.45;76.51;94627.25;5090967;28;20070;-34
2022/11/11 12:17:08;;;;;;;377.90;158.48;;;;;;;10.43;76.49;94627.03;5090806;28;20024;-34
2022/11/11 12:19:56;;;;;;;379.13;145.73;;;;;;;10.44;76.97;94620.97;5090935;28;20465;-34
2022/11/11 12:22:35;;;;;;;456.30;171.73;;;;;;;10.45;77.14;94621.72;5073017;28;20024;-34
2022/11/11 12:25:19;;;;;;;534.60;287.80;;;;;;;10.42;77.80;94615.22;5072691;28;20107;-34
2022/11/11 12:28:04;;;;;;;152.82;87.85;;;;;;;10.43;77.92;94613.97;5090712;28;20028;-34
2022/11/11 12:30:32;;;;;;;386.08;167.45;;;;;;;10.43;77.73;94616.72;5072657;28;20106;-34
2022/11/11 12:33:05;;;;;;;495.00;258.13;;;;;;;10.40;78.21;94612.25;5072703;28;20027;-34
2022/11/11 12:36:19;;;;;;;211.25;104.32;;;;;;;10.44;78.12;94612.69;5090900;28;20020;-34
2022/11/11 12:39:13;;;;;;;377.00;163.35;;;;;;;10.49;78.47;94611.13;4988754;28;20030;-34
2022/11/11 12:42:13;;;;;;;99.22;51.72;;;;;;;10.59;78.31;94607.50;4972614;28;20037;-34
2022/11/11 12:44:48;;;;;;;21.83;14.57;;;;;;;10.63;78.23;94605.19;5079236;28;20066;-34
2022/11/11 12:47:25;;;;;;;30.58;15.75;;;;;;;10.65;78.07;94610.19;5090736;28;20416;-34
2022/11/11 12:50:32;;;;;;;19.55;12.75;;;;;;;10.69;77.50;94602.34;5090401;28;20481;-34